首页
METAR-TAF:

METAR-TAF

机场 :

切爾諾夫策國際機場

切爾諾夫策, 乌克兰

纬度: 48-15-36N, 经度: 025-58-54E, 海拔: 252米

当前天气观测

该预报发布于2小时和29分钟前的06:00 UTC
静风
温度 19°C
湿度 78%
气压 1019 hPa
能见度10公里或以上
1500米以下无云,无积雨云

METAR: UKLN 190600Z 00000MPS CAVOK 19/15 Q1019 R15/09//70 NOSIG

时间: 11:29 (08:29 UTC)

预报

该预报发布于3小时和26分钟前的05:03 UTC
预报有效从19日的 06点(UTC)到 19日的 15点(UTC)
风速2节,风向多变
能见度10公里或以上
散云层高于4000英尺
短暂存在
从 19日的 06点(UTC)到 19日的 12点(UTC)
风速8节,风向东转东南

TAF: UKLN 190503Z 1906/1915 VRB01MPS 9999 SCT040 TX30/1915Z TN20/1906Z TEMPO 1906/1912 12004MPS

超过4000个机场的气象观测和天气预报(METAR&TAF报告)。

可查询的气象台以黄色和红色小点在地图上表示。

将鼠标移到小点上方,可查看气象台名称。

然后点击查看天气观测和预报。

如需切换地图:点击带黑十字的绿色按钮放大地图;点击带横线的绿色按钮缩小地图;或者点击绿色箭头查看邻近地区的地图。


METAR-TAF: